sensor_id;sensor_type;location;lat;lon;timestamp;pressure;altitude;pressure_sealevel;temperature;humidity
6038;BME280;3047;42.600;23.470;2023-06-26T00:01:02;92883.50;;;19.79;100.00
6038;BME280;3047;42.600;23.470;2023-06-26T00:03:30;92894.38;;;19.82;100.00
6038;BME280;3047;42.600;23.470;2023-06-26T00:05:58;92901.34;;;19.67;100.00
6038;BME280;3047;42.600;23.470;2023-06-26T00:08:26;92893.66;;;19.67;100.00
6038;BME280;3047;42.600;23.470;2023-06-26T00:10:53;92895.81;;;19.73;100.00
6038;BME280;3047;42.600;23.470;2023-06-26T00:13:22;92897.03;;;19.68;100.00
6038;BME280;3047;42.600;23.470;2023-06-26T00:15:49;92894.78;;;19.63;100.00
6038;BME280;3047;42.600;23.470;2023-06-26T00:18:16;92895.16;;;19.57;100.00
6038;BME280;3047;42.600;23.470;2023-06-26T00:20:43;92870.66;;;19.53;100.00
6038;BME280;3047;42.600;23.470;2023-06-26T00:23:11;92868.19;;;19.51;100.00
6038;BME280;3047;42.600;23.470;2023-06-26T00:25:38;92897.75;;;19.70;100.00
6038;BME280;3047;42.600;23.470;2023-06-26T00:28:05;92887.25;;;19.60;100.00
6038;BME280;3047;42.600;23.470;2023-06-26T00:30:33;92887.47;;;19.57;100.00
6038;BME280;3047;42.600;23.470;2023-06-26T00:33:00;92892.06;;;19.52;100.00
6038;BME280;3047;42.600;23.470;2023-06-26T00:35:27;92890.63;;;19.48;100.00
6038;BME280;3047;42.600;23.470;2023-06-26T00:37:53;92895.88;;;19.59;100.00
6038;BME280;3047;42.600;23.470;2023-06-26T00:40:20;92890.13;;;19.56;100.00
6038;BME280;3047;42.600;23.470;2023-06-26T00:42:47;92889.00;;;19.60;100.00
6038;BME280;3047;42.600;23.470;2023-06-26T00:45:14;92891.91;;;19.68;100.00
6038;BME280;3047;42.600;23.470;2023-06-26T00:47:42;92890.66;;;19.61;100.00
6038;BME280;3047;42.600;23.470;2023-06-26T00:50:08;92885.25;;;19.65;100.00
6038;BME280;3047;42.600;23.470;2023-06-26T00:52:36;92884.19;;;19.55;100.00
6038;BME280;3047;42.600;23.470;2023-06-26T00:55:03;92867.88;;;19.43;100.00
6038;BME280;3047;42.600;23.470;2023-06-26T00:57:30;92883.38;;;19.42;100.00
6038;BME280;3047;42.600;23.470;2023-06-26T00:59:57;92870.84;;;19.37;100.00
6038;BME280;3047;42.600;23.470;2023-06-26T01:02:24;92888.97;;;19.34;100.00
6038;BME280;3047;42.600;23.470;2023-06-26T01:04:55;92878.94;;;19.44;100.00
6038;BME280;3047;42.600;23.470;2023-06-26T01:07:22;92878.31;;;19.40;100.00
6038;BME280;3047;42.600;23.470;2023-06-26T01:09:49;92869.44;;;19.46;100.00
6038;BME280;3047;42.600;23.470;2023-06-26T01:12:16;92866.44;;;19.39;100.00
6038;BME280;3047;42.600;23.470;2023-06-26T01:14:43;92871.56;;;19.39;100.00
6038;BME280;3047;42.600;23.470;2023-06-26T01:17:10;92872.19;;;19.43;100.00
6038;BME280;3047;42.600;23.470;2023-06-26T01:19:39;92862.94;;;19.40;100.00
6038;BME280;3047;42.600;23.470;2023-06-26T01:22:17;92870.94;;;19.48;100.00
6038;BME280;3047;42.600;23.470;2023-06-26T01:24:56;92870.66;;;19.53;100.00
6038;BME280;3047;42.600;23.470;2023-06-26T01:27:30;92870.75;;;19.51;100.00
6038;BME280;3047;42.600;23.470;2023-06-26T01:29:59;92874.13;;;19.52;100.00
6038;BME280;3047;42.600;23.470;2023-06-26T01:32:26;92859.88;;;19.48;100.00
6038;BME280;3047;42.600;23.470;2023-06-26T01:34:53;92870.38;;;19.45;100.00
6038;BME280;3047;42.600;23.470;2023-06-26T01:37:20;92864.13;;;19.49;100.00
6038;BME280;3047;42.600;23.470;2023-06-26T01:39:47;92862.38;;;19.49;100.00
6038;BME280;3047;42.600;23.470;2023-06-26T01:42:13;92862.25;;;19.51;100.00
6038;BME280;3047;42.600;23.470;2023-06-26T01:44:44;92857.25;;;19.49;100.00
6038;BME280;3047;42.600;23.470;2023-06-26T01:47:14;92800.34;;;19.19;100.00
6038;BME280;3047;42.600;23.470;2023-06-26T01:49:47;92845.44;;;19.34;100.00
6038;BME280;3047;42.600;23.470;2023-06-26T01:52:20;92848.50;;;19.26;100.00
6038;BME280;3047;42.600;23.470;2023-06-26T01:54:55;92852.13;;;19.37;100.00
6038;BME280;3047;42.600;23.470;2023-06-26T01:57:22;92853.13;;;19.47;100.00
6038;BME280;3047;42.600;23.470;2023-06-26T01:59:53;92841.44;;;19.30;100.00
6038;BME280;3047;42.600;23.470;2023-06-26T02:02:23;92824.22;;;19.19;100.00
6038;BME280;3047;42.600;23.470;2023-06-26T02:04:50;92847.56;;;19.27;100.00
6038;BME280;3047;42.600;23.470;2023-06-26T02:07:17;92852.38;;;19.32;100.00
6038;BME280;3047;42.600;23.470;2023-06-26T02:09:43;92846.56;;;19.30;100.00
6038;BME280;3047;42.600;23.470;2023-06-26T02:12:10;92843.81;;;19.33;100.00
6038;BME280;3047;42.600;23.470;2023-06-26T02:14:37;92795.53;;;19.01;100.00
6038;BME280;3047;42.600;23.470;2023-06-26T02:17:05;92848.63;;;19.38;100.00
6038;BME280;3047;42.600;23.470;2023-06-26T02:19:34;92853.13;;;19.47;100.00
6038;BME280;3047;42.600;23.470;2023-06-26T02:22:01;92847.38;;;19.43;100.00
6038;BME280;3047;42.600;23.470;2023-06-26T02:24:28;92844.00;;;19.30;100.00
6038;BME280;3047;42.600;23.470;2023-06-26T02:26:55;92834.56;;;19.31;100.00
6038;BME280;3047;42.600;23.470;2023-06-26T02:29:22;92837.56;;;19.24;100.00
6038;BME280;3047;42.600;23.470;2023-06-26T02:31:49;92846.47;;;19.32;100.00
6038;BME280;3047;42.600;23.470;2023-06-26T02:34:17;92843.59;;;19.36;100.00
6038;BME280;3047;42.600;23.470;2023-06-26T02:36:44;92848.19;;;19.18;100.00
6038;BME280;3047;42.600;23.470;2023-06-26T02:39:10;92851.47;;;19.20;100.00
6038;BME280;3047;42.600;23.470;2023-06-26T02:41:37;92848.63;;;19.25;100.00
6038;BME280;3047;42.600;23.470;2023-06-26T02:44:04;92850.94;;;19.15;100.00
6038;BME280;3047;42.600;23.470;2023-06-26T02:46:31;92850.44;;;19.10;100.00
6038;BME280;3047;42.600;23.470;2023-06-26T02:48:59;92845.81;;;19.02;100.00
6038;BME280;3047;42.600;23.470;2023-06-26T02:51:27;92853.63;;;19.14;100.00
6038;BME280;3047;42.600;23.470;2023-06-26T02:53:53;92856.78;;;19.17;100.00
6038;BME280;3047;42.600;23.470;2023-06-26T02:56:20;92855.56;;;19.10;100.00
6038;BME280;3047;42.600;23.470;2023-06-26T02:58:47;92853.00;;;19.10;100.00
6038;BME280;3047;42.600;23.470;2023-06-26T03:01:13;92855.56;;;19.10;100.00
6038;BME280;3047;42.600;23.470;2023-06-26T03:03:41;92854.63;;;19.11;100.00
6038;BME280;3047;42.600;23.470;2023-06-26T03:06:08;92851.25;;;19.11;100.00
6038;BME280;3047;42.600;23.470;2023-06-26T03:08:37;92855.56;;;19.10;100.00
6038;BME280;3047;42.600;23.470;2023-06-26T03:11:04;92854.72;;;19.10;100.00
6038;BME280;3047;42.600;23.470;2023-06-26T03:13:32;92858.91;;;18.98;100.00
6038;BME280;3047;42.600;23.470;2023-06-26T03:15:58;92868.03;;;19.02;100.00
6038;BME280;3047;42.600;23.470;2023-06-26T03:18:25;92854.31;;;19.03;100.00
6038;BME280;3047;42.600;23.470;2023-06-26T03:20:52;92860.66;;;19.10;100.00
6038;BME280;3047;42.600;23.470;2023-06-26T03:23:20;92856.34;;;18.98;100.00
6038;BME280;3047;42.600;23.470;2023-06-26T03:25:48;92860.41;;;18.88;100.00
6038;BME280;3047;42.600;23.470;2023-06-26T03:28:15;92865.31;;;18.91;100.00
6038;BME280;3047;42.600;23.470;2023-06-26T03:30:42;92863.53;;;19.06;100.00
6038;BME280;3047;42.600;23.470;2023-06-26T03:33:08;92861.69;;;19.08;100.00
6038;BME280;3047;42.600;23.470;2023-06-26T03:35:35;92863.97;;;19.12;100.00
6038;BME280;3047;42.600;23.470;2023-06-26T03:38:03;92866.59;;;19.11;100.00
6038;BME280;3047;42.600;23.470;2023-06-26T03:40:30;92865.59;;;19.13;100.00
6038;BME280;3047;42.600;23.470;2023-06-26T03:42:58;92857.50;;;19.19;100.00
6038;BME280;3047;42.600;23.470;2023-06-26T03:45:25;92861.72;;;19.20;100.00
6038;BME280;3047;42.600;23.470;2023-06-26T03:47:52;92853.44;;;19.30;100.00
6038;BME280;3047;42.600;23.470;2023-06-26T03:50:18;92839.56;;;19.19;100.00
6038;BME280;3047;42.600;23.470;2023-06-26T03:52:45;92856.69;;;19.32;100.00
6038;BME280;3047;42.600;23.470;2023-06-26T03:55:12;92854.88;;;19.34;100.00
6038;BME280;3047;42.600;23.470;2023-06-26T03:57:39;92861.00;;;19.18;100.00
6038;BME280;3047;42.600;23.470;2023-06-26T04:00:09;92837.75;;;19.09;100.00
6038;BME280;3047;42.600;23.470;2023-06-26T04:02:38;92857.75;;;19.29;100.00
6038;BME280;3047;42.600;23.470;2023-06-26T04:05:05;92853.94;;;19.35;100.00
6038;BME280;3047;42.600;23.470;2023-06-26T04:07:32;92856.59;;;19.20;100.00
6038;BME280;3047;42.600;23.470;2023-06-26T04:09:59;92855.06;;;19.31;100.00
6038;BME280;3047;42.600;23.470;2023-06-26T04:12:26;92859.19;;;19.33;100.00
6038;BME280;3047;42.600;23.470;2023-06-26T04:14:53;92854.06;;;19.33;100.00
6038;BME280;3047;42.600;23.470;2023-06-26T04:17:21;92850.06;;;19.42;100.00
6038;BME280;3047;42.600;23.470;2023-06-26T04:19:48;92825.16;;;19.18;100.00
6038;BME280;3047;42.600;23.470;2023-06-26T04:22:14;92855.88;;;19.31;100.00
6038;BME280;3047;42.600;23.470;2023-06-26T04:24:41;92861.63;;;19.35;100.00
6038;BME280;3047;42.600;23.470;2023-06-26T04:27:09;92869.00;;;19.39;100.00
6038;BME280;3047;42.600;23.470;2023-06-26T04:29:36;92869.00;;;19.52;100.00
6038;BME280;3047;42.600;23.470;2023-06-26T04:32:03;92842.25;;;19.31;100.00
6038;BME280;3047;42.600;23.470;2023-06-26T04:34:31;92864.69;;;19.40;100.00
6038;BME280;3047;42.600;23.470;2023-06-26T04:37:00;92876.91;;;19.49;100.00
6038;BME280;3047;42.600;23.470;2023-06-26T04:39:29;92877.63;;;19.51;100.00
6038;BME280;3047;42.600;23.470;2023-06-26T04:41:56;92870.75;;;19.51;100.00
6038;BME280;3047;42.600;23.470;2023-06-26T04:44:23;92857.13;;;19.51;100.00
6038;BME280;3047;42.600;23.470;2023-06-26T04:46:50;92864.41;;;19.57;100.00
6038;BME280;3047;42.600;23.470;2023-06-26T04:49:17;92868.69;;;19.57;100.00
6038;BME280;3047;42.600;23.470;2023-06-26T04:51:45;92843.31;;;19.41;100.00
6038;BME280;3047;42.600;23.470;2023-06-26T04:54:12;92840.44;;;19.33;100.00
6038;BME280;3047;42.600;23.470;2023-06-26T04:56:38;92869.94;;;19.51;100.00
6038;BME280;3047;42.600;23.470;2023-06-26T04:59:06;92876.00;;;19.50;100.00
6038;BME280;3047;42.600;23.470;2023-06-26T05:01:38;92841.25;;;19.33;100.00
6038;BME280;3047;42.600;23.470;2023-06-26T05:04:04;92876.94;;;19.62;100.00
6038;BME280;3047;42.600;23.470;2023-06-26T05:06:31;92866.69;;;19.62;100.00
6038;BME280;3047;42.600;23.470;2023-06-26T05:08:59;92880.75;;;19.69;100.00
6038;BME280;3047;42.600;23.470;2023-06-26T05:11:26;92881.03;;;19.64;100.00
6038;BME280;3047;42.600;23.470;2023-06-26T05:13:52;92890.75;;;19.59;100.00
6038;BME280;3047;42.600;23.470;2023-06-26T05:16:19;92891.09;;;19.67;100.00
6038;BME280;3047;42.600;23.470;2023-06-26T05:18:46;92886.28;;;19.63;100.00
6038;BME280;3047;42.600;23.470;2023-06-26T05:21:13;92884.13;;;19.69;100.00
6038;BME280;3047;42.600;23.470;2023-06-26T05:23:40;92878.06;;;19.58;100.00
6038;BME280;3047;42.600;23.470;2023-06-26T05:26:11;92897.75;;;19.70;100.00
6038;BME280;3047;42.600;23.470;2023-06-26T05:28:39;92880.94;;;19.66;100.00
6038;BME280;3047;42.600;23.470;2023-06-26T05:31:06;92898.78;;;19.67;100.00
6038;BME280;3047;42.600;23.470;2023-06-26T05:33:35;92885.97;;;19.67;100.00
6038;BME280;3047;42.600;23.470;2023-06-26T05:36:04;92897.34;;;19.76;100.00
6038;BME280;3047;42.600;23.470;2023-06-26T05:38:31;92896.44;;;19.77;100.00
6038;BME280;3047;42.600;23.470;2023-06-26T05:41:00;92900.22;;;19.84;100.00
6038;BME280;3047;42.600;23.470;2023-06-26T05:43:28;92901.56;;;19.90;100.00
6038;BME280;3047;42.600;23.470;2023-06-26T05:45:55;92893.56;;;19.82;100.00
6038;BME280;3047;42.600;23.470;2023-06-26T05:48:22;92878.50;;;19.77;100.00
6038;BME280;3047;42.600;23.470;2023-06-26T05:50:49;92899.00;;;19.90;100.00
6038;BME280;3047;42.600;23.470;2023-06-26T05:53:16;92886.38;;;19.87;100.00
6038;BME280;3047;42.600;23.470;2023-06-26T05:55:43;92870.91;;;19.75;100.00
6038;BME280;3047;42.600;23.470;2023-06-26T05:58:10;92908.94;;;19.94;100.00
6038;BME280;3047;42.600;23.470;2023-06-26T06:00:40;92904.63;;;19.95;100.00
6038;BME280;3047;42.600;23.470;2023-06-26T06:03:06;92908.44;;;19.89;100.00
6038;BME280;3047;42.600;23.470;2023-06-26T06:05:35;92909.44;;;19.99;100.00
6038;BME280;3047;42.600;23.470;2023-06-26T06:08:02;92902.56;;;20.00;100.00
6038;BME280;3047;42.600;23.470;2023-06-26T06:10:28;92903.28;;;20.02;100.00
6038;BME280;3047;42.600;23.470;2023-06-26T06:12:55;92908.19;;;20.05;100.00
6038;BME280;3047;42.600;23.470;2023-06-26T06:15:22;92905.53;;;20.07;100.00
6038;BME280;3047;42.600;23.470;2023-06-26T06:17:50;92909.75;;;20.08;100.00
6038;BME280;3047;42.600;23.470;2023-06-26T06:20:17;92914.34;;;20.15;100.00
6038;BME280;3047;42.600;23.470;2023-06-26T06:22:44;92905.22;;;20.11;100.00
6038;BME280;3047;42.600;23.470;2023-06-26T06:25:11;92905.41;;;20.21;100.00
6038;BME280;3047;42.600;23.470;2023-06-26T06:27:38;92883.28;;;20.07;100.00
6038;BME280;3047;42.600;23.470;2023-06-26T06:30:06;92905.41;;;20.21;100.00
6038;BME280;3047;42.600;23.470;2023-06-26T06:32:33;92909.63;;;20.22;100.00
6038;BME280;3047;42.600;23.470;2023-06-26T06:35:01;92855.91;;;19.95;100.00
6038;BME280;3047;42.600;23.470;2023-06-26T06:37:36;92901.09;;;20.34;100.00
6038;BME280;3047;42.600;23.470;2023-06-26T06:40:04;92853.13;;;20.11;100.00
6038;BME280;3047;42.600;23.470;2023-06-26T06:42:31;92894.03;;;20.62;100.00
6038;BME280;3047;42.600;23.470;2023-06-26T06:44:58;92872.09;;;20.58;100.00
6038;BME280;3047;42.600;23.470;2023-06-26T06:47:25;92899.53;;;20.81;100.00
6038;BME280;3047;42.600;23.470;2023-06-26T06:49:52;92899.25;;;20.97;100.00
6038;BME280;3047;42.600;23.470;2023-06-26T06:52:20;92902.31;;;21.02;100.00
6038;BME280;3047;42.600;23.470;2023-06-26T06:54:53;92860.09;;;20.82;100.00
6038;BME280;3047;42.600;23.470;2023-06-26T06:57:20;92908.88;;;21.06;100.00
6038;BME280;3047;42.600;23.470;2023-06-26T06:59:47;92911.22;;;21.09;100.00
6038;BME280;3047;42.600;23.470;2023-06-26T07:02:14;92904.13;;;21.13;100.00
6038;BME280;3047;42.600;23.470;2023-06-26T07:04:41;92899.97;;;21.23;100.00
6038;BME280;3047;42.600;23.470;2023-06-26T07:07:08;92896.25;;;21.27;100.00
6038;BME280;3047;42.600;23.470;2023-06-26T07:09:36;92899.31;;;21.32;100.00
6038;BME280;3047;42.600;23.470;2023-06-26T07:12:04;92900.75;;;21.36;100.00
6038;BME280;3047;42.600;23.470;2023-06-26T07:14:30;92903.31;;;21.36;100.00
6038;BME280;3047;42.600;23.470;2023-06-26T07:16:57;92910.56;;;21.42;100.00
6038;BME280;3047;42.600;23.470;2023-06-26T07:19:24;92914.53;;;21.35;100.00
6038;BME280;3047;42.600;23.470;2023-06-26T07:21:51;92909.47;;;21.34;100.00
6038;BME280;3047;42.600;23.470;2023-06-26T07:24:17;92880.09;;;21.25;100.00
6038;BME280;3047;42.600;23.470;2023-06-26T07:26:46;92866.66;;;21.45;100.00
6038;BME280;3047;42.600;23.470;2023-06-26T07:29:12;92889.28;;;21.76;100.00
6038;BME280;3047;42.600;23.470;2023-06-26T07:31:39;92897.72;;;22.00;100.00
6038;BME280;3047;42.600;23.470;2023-06-26T07:34:06;92906.72;;;22.06;100.00
6038;BME280;3047;42.600;23.470;2023-06-26T07:36:32;92907.06;;;22.12;100.00
6038;BME280;3047;42.600;23.470;2023-06-26T07:38:59;92910.81;;;22.08;100.00
6038;BME280;3047;42.600;23.470;2023-06-26T07:41:26;92911.50;;;22.10;100.00
6038;BME280;3047;42.600;23.470;2023-06-26T07:43:56;92914.78;;;22.12;100.00
6038;BME280;3047;42.600;23.470;2023-06-26T07:46:23;92914.56;;;22.04;100.00
6038;BME280;3047;42.600;23.470;2023-06-26T07:48:50;92888.13;;;22.02;100.00
6038;BME280;3047;42.600;23.470;2023-06-26T07:51:16;92878.56;;;22.27;100.00
6038;BME280;3047;42.600;23.470;2023-06-26T07:53:43;92904.13;;;22.73;100.00
6038;BME280;3047;42.600;23.470;2023-06-26T07:56:10;92898.69;;;22.87;100.00
6038;BME280;3047;42.600;23.470;2023-06-26T07:58:36;92906.78;;;23.05;100.00
6038;BME280;3047;42.600;23.470;2023-06-26T08:01:04;92912.81;;;23.15;100.00
6038;BME280;3047;42.600;23.470;2023-06-26T08:03:31;92918.53;;;23.19;100.00
6038;BME280;3047;42.600;23.470;2023-06-26T08:05:58;92915.78;;;23.32;100.00
6038;BME280;3047;42.600;23.470;2023-06-26T08:08:24;92917.97;;;23.48;100.00
6038;BME280;3047;42.600;23.470;2023-06-26T08:10:51;92932.97;;;23.75;100.00
6038;BME280;3047;42.600;23.470;2023-06-26T08:13:18;92871.94;;;23.43;100.00
6038;BME280;3047;42.600;23.470;2023-06-26T08:15:44;92916.94;;;23.71;100.00
6038;BME280;3047;42.600;23.470;2023-06-26T08:18:12;92900.06;;;23.88;100.00
6038;BME280;3047;42.600;23.470;2023-06-26T08:20:39;92904.06;;;24.02;100.00
6038;BME280;3047;42.600;23.470;2023-06-26T08:23:06;92916.13;;;24.22;100.00
6038;BME280;3047;42.600;23.470;2023-06-26T08:25:32;92907.53;;;24.42;100.00
6038;BME280;3047;42.600;23.470;2023-06-26T08:27:59;92903.44;;;24.80;100.00
6038;BME280;3047;42.600;23.470;2023-06-26T08:30:26;92918.59;;;25.04;100.00
6038;BME280;3047;42.600;23.470;2023-06-26T08:32:53;92914.16;;;25.16;100.00
6038;BME280;3047;42.600;23.470;2023-06-26T08:35:22;92920.25;;;25.15;100.00
6038;BME280;3047;42.600;23.470;2023-06-26T08:37:49;92921.63;;;25.09;100.00
6038;BME280;3047;42.600;23.470;2023-06-26T08:40:17;92914.09;;;25.06;100.00
6038;BME280;3047;42.600;23.470;2023-06-26T08:42:44;92921.34;;;25.12;97.97
6038;BME280;3047;42.600;23.470;2023-06-26T08:45:11;92918.50;;;25.35;97.17
6038;BME280;3047;42.600;23.470;2023-06-26T08:47:39;92883.91;;;25.36;93.50
6038;BME280;3047;42.600;23.470;2023-06-26T08:50:10;92893.72;;;25.61;99.96
6038;BME280;3047;42.600;23.470;2023-06-26T08:52:43;92903.66;;;25.66;97.53
6038;BME280;3047;42.600;23.470;2023-06-26T08:55:12;92901.09;;;25.56;100.00
6038;BME280;3047;42.600;23.470;2023-06-26T08:57:41;92889.25;;;25.25;100.00
6038;BME280;3047;42.600;23.470;2023-06-26T09:00:09;92915.63;;;25.09;97.10
6038;BME280;3047;42.600;23.470;2023-06-26T09:02:36;92912.69;;;24.83;100.00
6038;BME280;3047;42.600;23.470;2023-06-26T09:05:03;92842.78;;;24.25;100.00
6038;BME280;3047;42.600;23.470;2023-06-26T09:07:30;92905.41;;;24.48;100.00
6038;BME280;3047;42.600;23.470;2023-06-26T09:09:58;92909.63;;;24.28;100.00
6038;BME280;3047;42.600;23.470;2023-06-26T09:12:26;92852.13;;;23.85;100.00
6038;BME280;3047;42.600;23.470;2023-06-26T09:14:54;92902.84;;;24.06;100.00
6038;BME280;3047;42.600;23.470;2023-06-26T09:17:24;92902.59;;;23.78;100.00
6038;BME280;3047;42.600;23.470;2023-06-26T09:19:51;92888.13;;;23.87;100.00
6038;BME280;3047;42.600;23.470;2023-06-26T09:22:19;92901.13;;;23.85;100.00
6038;BME280;3047;42.600;23.470;2023-06-26T09:24:47;92896.28;;;23.92;100.00
6038;BME280;3047;42.600;23.470;2023-06-26T09:27:15;92891.31;;;24.31;100.00
6038;BME280;3047;42.600;23.470;2023-06-26T09:29:45;92887.34;;;24.67;100.00
6038;BME280;3047;42.600;23.470;2023-06-26T09:32:12;92892.03;;;25.02;97.50
6038;BME280;3047;42.600;23.470;2023-06-26T09:34:41;92870.13;;;24.77;97.17
6038;BME280;3047;42.600;23.470;2023-06-26T09:37:11;92881.25;;;24.68;100.00
6038;BME280;3047;42.600;23.470;2023-06-26T09:39:38;92894.56;;;24.63;98.61
6038;BME280;3047;42.600;23.470;2023-06-26T09:42:05;92897.41;;;24.60;100.00
6038;BME280;3047;42.600;23.470;2023-06-26T09:44:33;92893.16;;;24.50;99.37
6038;BME280;3047;42.600;23.470;2023-06-26T09:47:01;92863.03;;;24.29;100.00
6038;BME280;3047;42.600;23.470;2023-06-26T09:49:29;92866.44;;;24.30;98.93
6038;BME280;3047;42.600;23.470;2023-06-26T09:51:56;92897.09;;;24.44;100.00
6038;BME280;3047;42.600;23.470;2023-06-26T09:54:23;92873.88;;;24.54;100.00
6038;BME280;3047;42.600;23.470;2023-06-26T09:56:50;92889.47;;;24.92;99.70
6038;BME280;3047;42.600;23.470;2023-06-26T09:59:17;92905.28;;;25.19;98.45
6038;BME280;3047;42.600;23.470;2023-06-26T10:01:46;92901.63;;;25.50;98.57
6038;BME280;3047;42.600;23.470;2023-06-26T10:04:12;92894.13;;;25.67;97.67
6038;BME280;3047;42.600;23.470;2023-06-26T10:06:45;92902.28;;;25.62;93.83
6038;BME280;3047;42.600;23.470;2023-06-26T10:09:14;92900.50;;;25.72;92.10
6038;BME280;3047;42.600;23.470;2023-06-26T10:11:47;92899.25;;;25.96;93.13
6038;BME280;3047;42.600;23.470;2023-06-26T10:14:16;92893.84;;;25.89;94.09
6038;BME280;3047;42.600;23.470;2023-06-26T10:16:46;92891.97;;;25.81;98.23
6038;BME280;3047;42.600;23.470;2023-06-26T10:19:16;92890.19;;;25.53;94.63
6038;BME280;3047;42.600;23.470;2023-06-26T10:21:50;92900.28;;;25.36;93.46
6038;BME280;3047;42.600;23.470;2023-06-26T10:24:18;92887.59;;;25.14;95.72
6038;BME280;3047;42.600;23.470;2023-06-26T10:26:49;92900.13;;;25.09;91.72
6038;BME280;3047;42.600;23.470;2023-06-26T10:29:17;92896.56;;;25.00;95.46
6038;BME280;3047;42.600;23.470;2023-06-26T10:31:50;92887.84;;;24.91;94.39
6038;BME280;3047;42.600;23.470;2023-06-26T10:34:19;92878.88;;;24.96;97.32
6038;BME280;3047;42.600;23.470;2023-06-26T10:36:46;92892.09;;;25.22;95.01
6038;BME280;3047;42.600;23.470;2023-06-26T10:39:17;92829.75;;;24.86;90.06
6038;BME280;3047;42.600;23.470;2023-06-26T10:41:43;92887.47;;;25.15;94.10
6038;BME280;3047;42.600;23.470;2023-06-26T10:44:11;92886.47;;;25.07;95.75
6038;BME280;3047;42.600;23.470;2023-06-26T10:46:52;92882.13;;;24.88;96.45
6038;BME280;3047;42.600;23.470;2023-06-26T10:49:20;92896.50;;;24.81;97.24
6038;BME280;3047;42.600;23.470;2023-06-26T10:51:48;92887.09;;;24.60;97.71
6038;BME280;3047;42.600;23.470;2023-06-26T10:54:15;92879.28;;;24.41;96.20
6038;BME280;3047;42.600;23.470;2023-06-26T10:56:43;92885.63;;;24.37;98.85
6038;BME280;3047;42.600;23.470;2023-06-26T10:59:15;92882.56;;;24.22;100.00
6038;BME280;3047;42.600;23.470;2023-06-26T11:01:43;92874.66;;;24.14;99.34
6038;BME280;3047;42.600;23.470;2023-06-26T11:04:13;92887.66;;;24.03;98.84
6038;BME280;3047;42.600;23.470;2023-06-26T11:06:43;92887.59;;;23.93;100.00
6038;BME280;3047;42.600;23.470;2023-06-26T11:09:13;92856.91;;;23.48;100.00
6038;BME280;3047;42.600;23.470;2023-06-26T11:11:57;92880.09;;;23.48;100.00
6038;BME280;3047;42.600;23.470;2023-06-26T11:14:27;92867.34;;;23.47;100.00
6038;BME280;3047;42.600;23.470;2023-06-26T11:16:55;92872.94;;;23.31;99.23
6038;BME280;3047;42.600;23.470;2023-06-26T11:19:25;92870.13;;;23.34;100.00
6038;BME280;3047;42.600;23.470;2023-06-26T11:21:52;92858.75;;;23.25;100.00
6038;BME280;3047;42.600;23.470;2023-06-26T11:24:24;92878.50;;;23.15;100.00
6038;BME280;3047;42.600;23.470;2023-06-26T11:26:51;92870.00;;;23.03;100.00
6038;BME280;3047;42.600;23.470;2023-06-26T11:29:18;92868.50;;;22.89;100.00
6038;BME280;3047;42.600;23.470;2023-06-26T11:31:45;92862.66;;;22.76;100.00
6038;BME280;3047;42.600;23.470;2023-06-26T11:34:13;92862.44;;;22.90;100.00
6038;BME280;3047;42.600;23.470;2023-06-26T11:36:42;92870.22;;;23.00;100.00
6038;BME280;3047;42.600;23.470;2023-06-26T11:39:12;92856.53;;;22.88;100.00
6038;BME280;3047;42.600;23.470;2023-06-26T11:41:40;92869.03;;;23.04;100.00
6038;BME280;3047;42.600;23.470;2023-06-26T11:44:08;92867.19;;;23.06;100.00
6038;BME280;3047;42.600;23.470;2023-06-26T11:46:36;92868.88;;;23.17;100.00
6038;BME280;3047;42.600;23.470;2023-06-26T11:49:03;92851.53;;;23.19;100.00
6038;BME280;3047;42.600;23.470;2023-06-26T11:51:30;92865.88;;;23.33;100.00
6038;BME280;3047;42.600;23.470;2023-06-26T11:54:00;92848.22;;;23.28;100.00
6038;BME280;3047;42.600;23.470;2023-06-26T11:56:28;92857.03;;;23.26;97.71
6038;BME280;3047;42.600;23.470;2023-06-26T11:58:58;92857.53;;;23.40;100.00
6038;BME280;3047;42.600;23.470;2023-06-26T12:01:26;92859.91;;;23.53;100.00
6038;BME280;3047;42.600;23.470;2023-06-26T12:04:00;92871.59;;;23.57;100.00
6038;BME280;3047;42.600;23.470;2023-06-26T12:06:29;92861.81;;;23.72;100.00
6038;BME280;3047;42.600;23.470;2023-06-26T12:08:56;92864.34;;;23.83;99.12
6038;BME280;3047;42.600;23.470;2023-06-26T12:11:24;92859.91;;;23.95;99.36
6038;BME280;3047;42.600;23.470;2023-06-26T12:13:52;92854.22;;;24.01;98.24
6038;BME280;3047;42.600;23.470;2023-06-26T12:16:19;92871.81;;;24.17;94.30
6038;BME280;3047;42.600;23.470;2023-06-26T12:18:46;92864.94;;;24.27;92.61
6038;BME280;3047;42.600;23.470;2023-06-26T12:21:28;92850.50;;;24.15;89.98
6038;BME280;3047;42.600;23.470;2023-06-26T12:23:58;92868.59;;;24.25;90.01
6038;BME280;3047;42.600;23.470;2023-06-26T12:26:27;92864.94;;;24.27;93.79
6038;BME280;3047;42.600;23.470;2023-06-26T12:29:01;92861.47;;;24.38;92.41
6038;BME280;3047;42.600;23.470;2023-06-26T12:31:28;92866.22;;;24.42;93.21
6038;BME280;3047;42.600;23.470;2023-06-26T12:33:55;92860.97;;;24.54;92.02
6038;BME280;3047;42.600;23.470;2023-06-26T12:36:22;92868.19;;;24.60;95.85
6038;BME280;3047;42.600;23.470;2023-06-26T12:38:49;92858.13;;;24.66;94.09
6038;BME280;3047;42.600;23.470;2023-06-26T12:41:16;92864.16;;;24.77;90.00
6038;BME280;3047;42.600;23.470;2023-06-26T12:43:44;92863.88;;;24.80;91.34
6038;BME280;3047;42.600;23.470;2023-06-26T12:46:10;92851.63;;;24.82;90.97
6038;BME280;3047;42.600;23.470;2023-06-26T12:48:38;92858.97;;;24.86;92.63
6038;BME280;3047;42.600;23.470;2023-06-26T12:51:11;92858.03;;;24.97;91.69
6038;BME280;3047;42.600;23.470;2023-06-26T12:53:39;92848.38;;;24.89;90.73
6038;BME280;3047;42.600;23.470;2023-06-26T12:56:06;92864.19;;;24.96;89.66
6038;BME280;3047;42.600;23.470;2023-06-26T12:58:33;92842.69;;;24.96;91.15
6038;BME280;3047;42.600;23.470;2023-06-26T13:01:03;92835.75;;;24.96;88.83
6038;BME280;3047;42.600;23.470;2023-06-26T13:03:29;92864.75;;;25.09;90.26
6038;BME280;3047;42.600;23.470;2023-06-26T13:05:56;92864.19;;;24.96;88.94